This is the latest recevied weather packets stored in our database for station/object OK1JIL-13. If no packets are shown the sender has not sent any weather packets the latest 10 day(s).
| Time | Temp. | Humidity | Pressure | Rain* | Wind** | Luminosity | Snow |
|---|---|---|---|---|---|---|---|
| 1788414185 | 14.44° C | 65% | 1020.8 hPa | - | - | - | - |
| 1788413586 | 15° C | 64% | 1020.7 hPa | - | - | - | - |
| 1788412985 | 15.56° C | 62% | 1020.6 hPa | - | - | - | - |
| 1788412385 | 15.56° C | 62% | 1020.5 hPa | - | - | - | - |
| 1788411785 | 15.56° C | 63% | 1020.6 hPa | - | - | - | - |
| 1788411185 | 14.44° C | 66% | 1020.6 hPa | - | - | - | - |
| 1788410585 | 13.89° C | 66% | 1020.5 hPa | - | - | - | - |
| 1788409985 | 13.89° C | 67% | 1020.4 hPa | - | - | - | - |
| 1788409385 | 13.33° C | 68% | 1020.5 hPa | - | - | - | - |
| 1788408787 | 13.33° C | 68% | 1020.5 hPa | - | - | - | - |
| 1788408185 | 13.33° C | 68% | 1020.5 hPa | - | - | - | - |
| 1788407585 | 13.33° C | 67% | 1020.6 hPa | - | - | - | - |
| 1788406985 | 13.33° C | 67% | 1020.4 hPa | - | - | - | - |
| 1788406385 | 13.33° C | 67% | 1020.5 hPa | - | - | - | - |
| 1788405785 | 13.33° C | 67% | 1020.5 hPa | - | - | - | - |
| 1788405185 | 13.33° C | 67% | 1020.6 hPa | - | - | - | - |
| 1788404585 | 13.33° C | 67% | 1020.7 hPa | - | - | - | - |
| 1788403985 | 13.33° C | 67% | 1020.7 hPa | - | - | - | - |
| 1788402785 | 13.33° C | 67% | 1020.6 hPa | - | - | - | - |
| 1788402185 | 13.33° C | 67% | 1020.7 hPa | - | - | - | - |
| 1788380584 | 14.44° C | 69% | 1021.3 hPa | - | - | - | - |
| 1788377584 | 15.56° C | 66% | 1021.2 hPa | - | - | - | - |
| 1788376984 | 16.67° C | 58% | 1021.2 hPa | - | - | - | - |
| 1788376384 | 16.11° C | 57% | 1021 hPa | - | - | - | - |
| 1788375784 | 16.11° C | 58% | 1021 hPa | - | - | - | - |
* Rain since midnight (hover to see other rain measurements)
** Current wind speed in m/s (hover to see current wind gust speed)